Time;durP1;ratioP1;P1;durP2;ratioP2;P2;SDS_P1;SDS_P2;PMS_P1;PMS_P2;Temp;Humidity;BMP_temperature;BMP_pressure;BME280_temperature;BME280_humidity;BME280_pressure;Samples;Min_cycle;Max_cycle;Signal;HPM_P1;HPM_P2
2022/04/24 12:55:00;;;;;;;9.00;4.18;;;;;;;25.09;30.00;100454.75;5086949;27;20219;-69
2022/04/24 12:57:27;;;;;;;5.43;4.38;;;;;;;24.78;29.63;100456.25;5104787;28;20047;-68
2022/04/24 12:59:53;;;;;;;9.57;4.60;;;;;;;24.74;29.24;100457.81;5080538;28;20048;-68
2022/04/24 13:02:21;;;;;;;6.10;4.07;;;;;;;24.68;31.01;100459.63;5107399;28;20526;-68
2022/04/24 13:04:48;;;;;;;5.07;4.25;;;;;;;24.53;29.26;100451.38;5101242;27;20067;-68
2022/04/24 13:07:15;;;;;;;5.72;3.90;;;;;;;24.37;29.58;100455.69;5109665;28;20053;-68
2022/04/24 13:09:41;;;;;;;4.85;4.00;;;;;;;24.52;29.10;100453.25;5099673;28;20131;-67
2022/04/24 13:12:11;;;;;;;4.05;3.65;;;;;;;24.13;29.44;100455.88;5101167;27;20068;-67
2022/04/24 13:14:38;;;;;;;6.13;4.13;;;;;;;23.89;29.69;100447.19;5111092;28;20058;-68
2022/04/24 13:19:49;;;;;;;5.82;4.00;;;;;;;24.27;29.34;100445.63;5113597;28;20173;-68
2022/04/24 13:22:17;;;;;;;4.60;3.75;;;;;;;24.08;29.74;100450.44;5103735;27;20050;-67
2022/04/24 13:24:43;;;;;;;5.95;3.75;;;;;;;24.04;28.86;100452.00;5099326;28;20062;-67
2022/04/24 13:27:10;;;;;;;9.68;4.10;;;;;;;24.27;29.37;100454.47;5108684;28;20069;-67
2022/04/24 13:29:37;;;;;;;5.32;3.90;;;;;;;24.08;29.75;100448.56;5097166;27;20056;-68
2022/04/24 13:32:04;;;;;;;4.63;3.83;;;;;;;23.94;29.53;100438.44;5118322;28;20047;-67
2022/04/24 13:34:31;;;;;;;5.20;3.42;;;;;;;24.12;30.09;100443.53;5101553;27;20055;-68
2022/04/24 13:39:43;;;;;;;4.35;3.15;;;;;;;24.20;30.83;100448.47;5087609;27;20058;-68
2022/04/24 13:42:13;;;;;;;3.97;3.35;;;;;;;24.04;29.84;100438.59;5092810;28;20040;-68
2022/04/24 13:44:39;;;;;;;5.38;3.60;;;;;;;23.88;30.31;100450.94;5101717;27;20044;-68
2022/04/24 13:47:06;;;;;;;3.67;3.38;;;;;;;23.74;32.30;100454.94;5106656;28;20062;-68
2022/04/24 13:49:33;;;;;;;6.70;3.75;;;;;;;23.43;30.17;100446.41;5107230;28;20063;-67
2022/04/24 13:52:01;;;;;;;7.97;3.47;;;;;;;23.28;31.14;100458.44;5092767;27;20052;-69
2022/04/24 13:54:28;;;;;;;;;;;;;;;23.15;31.28;100463.28;5103387;28;20182;-68
2022/04/24 13:56:56;;;;;;;4.63;3.40;;;;;;;23.30;31.24;100463.56;5095173;27;20309;-68
2022/04/24 13:59:24;;;;;;;5.53;3.67;;;;;;;23.04;31.26;100459.63;5110960;28;20134;-68
2022/04/24 14:01:51;;;;;;;;;;;;;;;23.22;30.45;100454.06;5092315;27;20496;-67
2022/04/24 14:04:18;;;;;;;6.93;3.22;;;;;;;23.34;31.46;100451.34;5106877;28;20282;-67
2022/04/24 14:06:44;;;;;;;4.90;3.33;;;;;;;23.55;31.23;100449.03;5092227;28;20051;-68
2022/04/24 14:09:11;;;;;;;4.60;3.30;;;;;;;23.64;30.93;100453.75;5079703;27;20055;-67
2022/04/24 14:11:37;;;;;;;6.30;2.90;;;;;;;23.97;30.47;100446.81;5091373;28;20050;-67
2022/04/24 14:14:04;;;;;;;6.03;3.35;;;;;;;24.00;29.33;100450.88;5073384;28;20135;-68
2022/04/24 14:16:30;;;;;;;4.32;3.13;;;;;;;24.34;29.50;100442.78;5081381;28;20052;-67
2022/04/24 14:18:57;;;;;;;7.00;3.30;;;;;;;24.45;29.25;100442.66;5082376;28;20048;-67
2022/04/24 14:21:23;;;;;;;5.53;3.00;;;;;;;24.45;29.38;100441.84;5072814;28;20044;-67
2022/04/24 14:23:53;;;;;;;5.90;3.05;;;;;;;24.40;29.57;100449.81;5078492;28;20063;-68
2022/04/24 14:26:20;;;;;;;5.13;3.15;;;;;;;24.19;29.29;100456.78;5074384;28;20050;-67
2022/04/24 14:28:46;;;;;;;8.25;3.17;;;;;;;24.02;29.91;100462.16;5080619;28;20048;-68
2022/04/24 14:31:13;;;;;;;5.40;2.93;;;;;;;23.69;29.65;100463.72;5075485;28;20093;-67
2022/04/24 14:33:40;;;;;;;6.70;2.88;;;;;;;23.54;29.70;100472.31;5082073;28;20169;-67
2022/04/24 14:36:08;;;;;;;;;;;;;;;23.41;30.02;100468.06;5083555;28;20327;-67
2022/04/24 14:38:34;;;;;;;6.40;3.22;;;;;;;23.27;30.64;100467.53;5070585;28;19924;-67
2022/04/24 14:41:00;;;;;;;3.92;2.70;;;;;;;23.25;30.86;100468.84;5081266;28;20048;-67
2022/04/24 14:43:27;;;;;;;3.92;2.90;;;;;;;23.07;30.41;100465.31;5077331;27;20219;-68
2022/04/24 14:57:00;;;;;;;4.28;3.15;;;;;;;23.26;30.47;100465.91;5080314;28;20063;-67
2022/04/24 14:59:26;;;;;;;4.32;2.75;;;;;;;22.99;29.79;100464.81;5073615;28;20058;-67
2022/04/24 15:01:53;;;;;;;3.03;2.72;;;;;;;22.84;31.75;100471.50;5079474;28;20083;-67
2022/04/24 15:04:20;;;;;;;5.40;3.03;;;;;;;22.56;30.81;100474.91;5079800;28;20415;-68
2022/04/24 15:06:47;;;;;;;5.05;3.00;;;;;;;22.52;31.19;100473.75;5081896;27;20054;-68
2022/04/24 15:09:13;;;;;;;5.75;3.30;;;;;;;22.44;31.36;100476.78;5086159;28;20559;-68
2022/04/24 15:11:40;;;;;;;4.70;2.80;;;;;;;;;;5088576;28;20134;-68
2022/04/24 15:14:06;;;;;;;6.60;3.17;;;;;;;22.35;32.32;100475.53;5089365;28;20117;-68
2022/04/24 15:16:32;;;;;;;4.88;3.33;;;;;;;22.31;32.53;100481.31;5084223;28;20386;-68
2022/04/24 15:18:59;;;;;;;4.93;2.38;;;;;;;22.37;32.26;100468.88;5086656;28;20052;-68
2022/04/24 15:21:26;;;;;;;9.85;3.03;;;;;;;22.39;31.69;100477.47;5098604;28;20051;-68
2022/04/24 15:23:54;;;;;;;6.80;3.72;;;;;;;22.36;32.86;100472.59;5082850;27;20536;-68
2022/04/24 15:26:21;;;;;;;4.97;3.30;;;;;;;22.31;32.81;100489.31;5096224;28;20053;-68
2022/04/24 15:28:47;;;;;;;4.53;3.20;;;;;;;22.22;31.57;100490.69;5072038;28;20052;-69
2022/04/24 15:31:14;;;;;;;6.03;3.90;;;;;;;21.91;32.59;100494.47;5076915;28;20048;-68
2022/04/24 15:33:41;;;;;;;5.97;4.28;;;;;;;21.82;31.73;100490.53;5067811;28;20417;-68
2022/04/24 15:36:08;;;;;;;6.55;4.50;;;;;;;21.81;32.02;100499.56;5084573;28;20048;-68
2022/04/24 15:38:34;;;;;;;6.28;4.22;;;;;;;21.59;32.44;100494.75;5080607;28;20157;-68
2022/04/24 15:41:00;;;;;;;7.05;4.30;;;;;;;21.41;32.44;100495.59;5071633;28;20366;-68
2022/04/24 15:43:28;;;;;;;5.75;3.88;;;;;;;21.47;33.66;100497.38;5085689;28;20055;-67
2022/04/24 15:45:54;;;;;;;4.63;3.42;;;;;;;21.41;33.01;100494.78;5065833;28;20120;-67
2022/04/24 15:48:21;;;;;;;7.35;3.45;;;;;;;21.60;33.49;100499.06;5083377;28;20067;-67
2022/04/24 15:50:48;;;;;;;4.85;3.03;;;;;;;21.54;33.76;100491.94;5088565;28;20521;-66
2022/04/24 15:53:22;;;;;;;4.95;2.72;;;;;;;21.67;33.31;100489.06;5090748;28;20488;-68
2022/04/24 15:55:48;;;;;;;5.28;2.53;;;;;;;21.75;33.68;100498.63;5096769;28;20090;-67
2022/04/24 15:58:15;;;;;;;5.63;3.08;;;;;;;21.75;33.06;100498.63;5080878;28;20515;-66
2022/04/24 16:00:42;;;;;;;5.05;3.05;;;;;;;21.78;32.83;100500.84;5076537;28;20567;-67
2022/04/24 16:03:08;;;;;;;6.07;2.55;;;;;;;21.77;33.25;100509.06;5076187;28;20055;-67
2022/04/24 16:05:35;;;;;;;6.03;3.13;;;;;;;21.86;33.43;100505.03;5089666;28;20054;-67
2022/04/24 16:08:03;;;;;;;4.57;2.95;;;;;;;21.66;32.94;100511.50;5071436;28;20051;-69
2022/04/24 16:10:30;;;;;;;4.18;2.92;;;;;;;21.52;33.88;100510.03;5080081;28;20086;-67
2022/04/24 16:12:56;;;;;;;5.22;2.80;;;;;;;21.36;33.47;100511.44;5073219;28;20217;-67
2022/04/24 16:15:23;;;;;;;5.93;3.20;;;;;;;21.13;33.25;100504.16;5066240;28;20051;-67
2022/04/24 16:17:50;;;;;;;5.18;3.80;;;;;;;21.12;33.55;100510.53;5079723;28;20325;-68
2022/04/24 16:20:17;;;;;;;5.18;3.13;;;;;;;21.32;33.25;100510.25;5073030;28;20091;-68
2022/04/24 16:22:44;;;;;;;8.02;3.88;;;;;;;21.34;33.92;100516.19;5086868;28;20450;-68
2022/04/24 16:25:10;;;;;;;6.60;3.63;;;;;;;21.50;33.50;100510.28;5075967;28;20569;-66
2022/04/24 16:27:38;;;;;;;5.20;2.55;;;;;;;21.58;33.29;100527.00;5071112;28;20048;-67
2022/04/24 16:30:05;;;;;;;4.72;2.17;;;;;;;21.75;33.06;100516.50;5079241;28;20441;-67
2022/04/24 16:32:34;;;;;;;4.28;2.65;;;;;;;21.61;32.95;100516.69;5071020;28;20480;-68
2022/04/24 16:35:06;;;;;;;4.80;2.80;;;;;;;21.63;32.80;100521.78;5079267;28;20100;-68
2022/04/24 16:37:34;;;;;;;6.78;2.35;;;;;;;21.68;33.30;100519.28;5071532;28;20047;-68
2022/04/24 16:40:03;;;;;;;;;;;;;;;21.68;32.92;100528.09;5075346;28;20055;-68
2022/04/24 16:42:29;;;;;;;9.18;5.22;;;;;;;21.63;32.23;100527.94;5070606;28;19924;-68
2022/04/24 16:44:56;;;;;;;7.45;5.55;;;;;;;21.64;33.12;100532.25;5096243;28;20052;-68
2022/04/24 16:47:23;;;;;;;10.13;4.90;;;;;;;21.57;32.55;100531.53;5081321;28;20050;-67
2022/04/24 16:49:49;;;;;;;6.22;4.18;;;;;;;21.27;32.17;100537.63;5080028;28;20576;-68
2022/04/24 17:00:28;;;;;;;4.35;3.30;;;;;;;20.80;32.91;100536.53;5088804;27;20079;-68
2022/04/24 17:02:55;;;;;;;;;;;;;;;20.68;32.81;100542.56;5090546;28;20047;-67
2022/04/24 17:05:23;;;;;;;7.38;3.05;;;;;;;20.46;33.47;100541.31;5088215;27;19950;-67
2022/04/24 17:07:51;;;;;;;5.50;3.30;;;;;;;20.40;33.85;100545.66;5087833;28;20067;-67
2022/04/24 17:10:18;;;;;;;6.45;3.30;;;;;;;20.29;33.87;100541.88;5090247;28;20508;-68
2022/04/24 17:12:45;;;;;;;4.88;2.65;;;;;;;20.25;34.65;100545.19;5082897;28;20106;-67
2022/04/24 17:15:12;;;;;;;3.78;2.70;;;;;;;20.18;35.00;100545.22;5077868;28;20048;-67
2022/04/24 17:17:39;;;;;;;4.07;2.33;;;;;;;20.05;35.05;100553.28;5071320;28;20054;-67
2022/04/24 17:20:07;;;;;;;7.18;4.00;;;;;;;19.99;35.48;100549.66;5080166;28;20052;-67
2022/04/24 17:22:35;;;;;;;8.02;3.60;;;;;;;19.88;36.15;100555.69;5073331;27;20712;-67
2022/04/24 17:25:03;;;;;;;5.45;3.20;;;;;;;19.83;36.17;100560.81;5076362;28;20406;-67
2022/04/24 17:27:30;;;;;;;;;;;;;;;19.75;36.08;100559.22;5077924;28;20482;-67
2022/04/24 17:29:56;;;;;;;9.23;3.17;;;;;;;19.48;35.94;100558.50;5074875;28;19924;-67
2022/04/24 17:32:26;;;;;;;3.83;2.70;;;;;;;19.36;36.46;100558.34;5079002;28;20075;-67
2022/04/24 17:34:52;;;;;;;5.00;2.95;;;;;;;19.27;36.45;100562.28;5083150;27;20082;-67
2022/04/24 17:37:19;;;;;;;4.68;2.90;;;;;;;19.05;36.61;100570.53;5072423;28;20059;-67
2022/04/24 17:39:45;;;;;;;5.13;2.83;;;;;;;18.87;37.05;100565.84;5068300;28;20532;-67
2022/04/24 17:42:12;;;;;;;4.60;2.50;;;;;;;18.85;36.97;100567.88;5085225;28;20564;-67
2022/04/24 17:44:39;;;;;;;8.48;3.10;;;;;;;18.70;37.49;100572.56;5086659;28;20044;-66
2022/04/24 17:47:05;;;;;;;4.47;2.50;;;;;;;18.69;37.73;100579.75;5089125;28;20083;-67
2022/04/24 17:49:33;;;;;;;6.47;3.10;;;;;;;18.63;37.88;100585.06;5081094;28;20468;-69
2022/04/24 17:52:03;;;;;;;4.95;2.80;;;;;;;18.55;38.33;100586.09;5071738;28;20139;-66
2022/04/24 17:54:30;;;;;;;7.53;2.65;;;;;;;18.37;38.54;100584.03;5085948;28;20112;-66
2022/04/24 17:56:57;;;;;;;5.23;2.70;;;;;;;18.34;38.75;100595.06;5083259;28;20048;-67
2022/04/24 17:59:23;;;;;;;4.40;2.58;;;;;;;18.19;38.83;100587.31;5082669;28;20054;-68
2022/04/24 18:01:51;;;;;;;6.90;3.10;;;;;;;18.04;39.30;100590.13;5074311;28;20052;-66
2022/04/24 18:04:18;;;;;;;8.38;3.47;;;;;;;17.97;39.72;100592.78;5080564;28;20040;-68
2022/04/24 18:06:45;;;;;;;7.00;3.35;;;;;;;17.82;39.41;100584.13;5082401;28;20156;-66
2022/04/24 18:09:13;;;;;;;4.97;3.00;;;;;;;17.82;39.54;100596.56;5074305;28;20056;-66
2022/04/24 18:11:40;;;;;;;3.45;2.45;;;;;;;17.79;40.29;100595.13;5083422;28;20678;-67
2022/04/24 18:14:07;;;;;;;4.20;2.42;;;;;;;17.68;40.55;100601.00;5085840;27;20446;-66
2022/04/24 18:16:34;;;;;;;4.20;2.70;;;;;;;17.61;40.75;100603.63;5093202;28;20360;-66
2022/04/24 18:19:02;;;;;;;4.65;2.50;;;;;;;17.52;41.39;100607.47;5070040;28;20100;-68
2022/04/24 18:21:30;;;;;;;5.70;2.40;;;;;;;17.50;41.38;100607.66;5094555;28;20478;-68
2022/04/24 18:23:57;;;;;;;4.35;2.60;;;;;;;17.42;41.52;100614.97;5093060;28;20051;-67
2022/04/24 18:26:24;;;;;;;4.82;2.80;;;;;;;17.32;42.19;100613.47;5088933;27;20703;-67
2022/04/24 18:28:52;;;;;;;5.72;3.05;;;;;;;17.37;42.14;100613.72;5082190;28;20063;-66
2022/04/24 18:31:19;;;;;;;5.75;2.95;;;;;;;17.36;42.12;100627.97;5072867;28;20048;-67
2022/04/24 18:33:46;;;;;;;5.63;3.20;;;;;;;17.29;42.45;100623.66;5074535;28;20056;-67
2022/04/24 18:38:58;;;;;;;4.13;2.33;;;;;;;17.19;42.52;100640.75;5081548;28;20101;-67
2022/04/24 18:41:25;;;;;;;8.10;2.80;;;;;;;17.00;43.11;100644.88;5083000;28;20052;-68
2022/04/24 18:43:51;;;;;;;6.45;3.30;;;;;;;16.99;43.36;100653.03;5086531;28;20062;-68
2022/04/24 18:46:17;;;;;;;7.55;2.85;;;;;;;16.99;42.52;100647.72;5079302;28;20056;-67
2022/04/24 18:48:44;;;;;;;6.78;2.50;;;;;;;17.02;42.67;100642.06;5072594;28;20453;-67
2022/04/24 18:51:10;;;;;;;4.40;2.42;;;;;;;16.98;42.91;100656.69;5085935;28;20057;-67
2022/04/24 18:53:37;;;;;;;5.95;2.45;;;;;;;16.92;43.08;100658.28;5082731;28;20458;-67
2022/04/24 18:56:04;;;;;;;4.50;2.70;;;;;;;16.91;43.17;100658.47;5084424;28;20043;-67
2022/04/24 18:58:31;;;;;;;7.28;2.80;;;;;;;16.80;43.39;100660.59;5085906;28;20052;-67
2022/04/24 19:00:57;;;;;;;4.63;2.60;;;;;;;16.75;43.35;100662.19;5071935;28;20231;-67
2022/04/24 19:03:24;;;;;;;7.03;2.70;;;;;;;16.64;43.18;100670.63;5098574;28;20079;-68
2022/04/24 19:08:35;;;;;;;6.55;2.45;;;;;;;16.61;43.54;100683.25;5101388;28;20788;-67
2022/04/24 19:11:13;;;;;;;5.22;2.42;;;;;;;16.54;43.27;100682.38;5083841;28;20056;-67
2022/04/24 19:13:42;;;;;;;;;;;;;;;16.54;43.52;100690.31;5081379;28;20048;-67
2022/04/24 19:16:10;;;;;;;3.80;2.38;;;;;;;16.43;43.71;100690.81;5079980;27;19931;-67
2022/04/24 19:18:37;;;;;;;4.03;2.30;;;;;;;16.25;44.07;100698.34;5083038;28;20054;-67
2022/04/24 19:21:05;;;;;;;3.97;2.50;;;;;;;16.28;44.19;100705.91;5097771;28;20047;-68
2022/04/24 19:23:32;;;;;;;8.27;2.65;;;;;;;16.18;44.83;100712.31;5086080;28;20051;-67
2022/04/24 19:25:59;;;;;;;4.55;2.38;;;;;;;16.11;44.71;100711.44;5077563;28;20044;-67
2022/04/24 19:28:26;;;;;;;6.53;3.55;;;;;;;15.95;45.54;100722.22;5066780;28;20056;-67
2022/04/24 19:30:53;;;;;;;5.88;3.08;;;;;;;15.96;45.28;100723.88;5080501;28;20483;-67
2022/04/24 19:33:20;;;;;;;3.30;2.20;;;;;;;15.83;46.16;100727.16;5072938;28;20056;-67
2022/04/24 19:35:46;;;;;;;5.97;2.78;;;;;;;15.78;46.33;100732.19;5081594;28;20386;-67
2022/04/24 19:38:13;;;;;;;4.15;2.28;;;;;;;15.70;46.11;100734.84;5080991;28;20607;-67
2022/04/24 19:40:40;;;;;;;5.38;2.20;;;;;;;15.59;46.56;100733.50;5068314;28;20070;-66
2022/04/24 19:43:09;;;;;;;4.40;2.60;;;;;;;15.58;46.26;100740.63;5085949;28;20119;-66
2022/04/24 19:45:36;;;;;;;6.60;2.50;;;;;;;15.55;47.02;100742.81;5061535;28;20060;-66
2022/04/24 19:50:48;;;;;;;2.90;2.30;;;;;;;15.35;47.36;100748.59;5090080;27;20052;-66
2022/04/24 19:53:15;;;;;;;4.63;2.53;;;;;;;15.24;48.05;100746.38;5081127;28;20062;-67
2022/04/24 19:55:41;;;;;;;3.47;1.92;;;;;;;15.25;47.77;100758.63;5073229;28;20560;-65
2022/04/24 19:58:08;;;;;;;8.43;2.47;;;;;;;15.13;47.81;100750.28;5070611;28;20055;-66
2022/04/24 20:00:34;;;;;;;4.93;2.42;;;;;;;15.10;48.94;100757.75;5080902;28;20528;-67
2022/04/24 20:03:01;;;;;;;4.13;2.83;;;;;;;14.99;49.26;100762.47;5071838;28;20143;-67
2022/04/24 20:05:27;;;;;;;3.58;2.55;;;;;;;14.98;48.92;100765.25;5092175;28;20105;-66
2022/04/24 20:07:54;;;;;;;6.93;2.72;;;;;;;14.92;49.11;100763.34;5068184;28;20063;-66
2022/04/24 20:10:20;;;;;;;4.40;2.35;;;;;;;14.89;49.40;100767.13;5076148;28;20056;-66
2022/04/24 20:12:47;;;;;;;4.28;2.50;;;;;;;14.86;49.83;100772.78;5085737;28;20469;-67
2022/04/24 20:15:34;;;;;;;5.30;2.72;;;;;;;14.78;50.06;100778.94;5092006;28;20051;-67
2022/04/24 20:18:01;;;;;;;5.30;3.10;;;;;;;14.79;49.84;100777.91;5098064;28;20083;-66
2022/04/24 20:20:28;;;;;;;4.07;2.60;;;;;;;14.74;50.05;100779.44;5080226;28;20425;-67
2022/04/24 20:22:56;;;;;;;3.78;2.30;;;;;;;14.72;50.45;100779.63;5080244;28;20052;-66
2022/04/24 20:25:22;;;;;;;5.00;3.10;;;;;;;14.65;50.69;100785.78;5070867;28;20070;-66
2022/04/24 20:27:50;;;;;;;5.07;2.53;;;;;;;14.53;51.56;100786.13;5080751;28;20048;-68
2022/04/24 20:30:17;;;;;;;5.43;2.80;;;;;;;14.42;52.35;100783.88;5072689;28;20394;-68
2022/04/24 20:32:45;;;;;;;5.70;2.90;;;;;;;14.35;52.71;100781.13;5079533;28;20048;-67
2022/04/24 20:35:12;;;;;;;3.97;2.88;;;;;;;14.35;52.95;100782.94;5077541;28;20285;-67
2022/04/24 20:37:39;;;;;;;5.70;2.65;;;;;;;14.30;52.75;100787.91;5068656;28;20144;-67
2022/04/24 20:40:06;;;;;;;6.55;2.70;;;;;;;14.27;53.99;100786.44;5081243;28;20605;-67
2022/04/24 20:42:33;;;;;;;7.10;2.92;;;;;;;14.14;54.15;100786.16;5074371;28;20131;-67
2022/04/24 20:45:00;;;;;;;6.32;3.05;;;;;;;14.13;54.41;100784.50;5084601;28;20090;-67
2022/04/24 20:47:26;;;;;;;4.50;3.05;;;;;;;14.11;55.50;100792.56;5078169;28;20066;-68
2022/04/24 20:49:52;;;;;;;5.95;2.78;;;;;;;14.04;55.69;100788.97;5066365;28;20052;-68
2022/04/24 20:52:19;;;;;;;6.00;2.90;;;;;;;13.99;55.80;100788.66;5067632;28;20408;-68
2022/04/24 20:54:45;;;;;;;8.77;3.15;;;;;;;13.90;57.19;100787.88;5082150;27;20424;-67
2022/04/24 20:57:12;;;;;;;6.63;3.90;;;;;;;13.87;57.13;100788.19;5084188;28;20063;-68
2022/04/24 20:59:38;;;;;;;9.75;4.60;;;;;;;13.85;56.34;100785.72;5071754;28;20628;-67
2022/04/24 21:02:12;;;;;;;6.45;3.80;;;;;;;13.83;57.62;100789.53;5074813;28;20056;-68
2022/04/24 21:04:39;;;;;;;6.00;3.50;;;;;;;13.71;57.63;100789.06;5083026;28;20047;-67
2022/04/24 21:07:06;;;;;;;5.57;3.42;;;;;;;13.73;57.53;100791.53;5072050;28;20493;-67
2022/04/24 21:09:32;;;;;;;11.65;4.22;;;;;;;13.67;58.43;100798.28;5097271;28;20047;-67
2022/04/24 21:11:58;;;;;;;7.13;3.63;;;;;;;13.60;58.03;100792.88;5073058;28;20056;-67
2022/04/24 21:14:27;;;;;;;;;;;;;;;13.67;57.84;100793.03;5087040;28;20511;-68
2022/04/24 21:17:14;;;;;;;7.72;3.25;;;;;;;13.57;58.01;100800.28;5076847;28;20331;-67
2022/04/24 21:19:40;;;;;;;6.30;3.30;;;;;;;13.46;58.57;100793.53;5099196;28;20044;-68
2022/04/24 21:22:07;;;;;;;8.27;3.67;;;;;;;13.47;57.23;100803.09;5093724;28;20074;-67
2022/04/24 21:24:33;;;;;;;6.55;3.67;;;;;;;13.33;59.79;100804.59;5085266;28;20268;-68
2022/04/24 21:27:00;;;;;;;8.82;3.70;;;;;;;13.29;60.32;100807.66;5100191;28;20443;-67
2022/04/24 21:29:27;;;;;;;6.15;3.33;;;;;;;13.15;60.27;100809.13;5081676;28;20668;-67
2022/04/24 21:31:53;;;;;;;10.15;4.28;;;;;;;13.18;59.70;100808.81;5095466;28;20142;-67
2022/04/24 21:34:20;;;;;;;7.05;3.60;;;;;;;13.10;59.72;100811.47;5085851;27;20516;-67
2022/04/24 21:36:47;;;;;;;8.43;3.72;;;;;;;13.07;59.72;100809.94;5101555;28;20050;-67
2022/04/24 21:39:13;;;;;;;7.95;3.65;;;;;;;13.04;61.00;100819.00;5094940;28;20392;-67
2022/04/24 21:41:42;;;;;;;6.45;3.80;;;;;;;12.96;61.16;100826.09;5076081;28;20127;-67
2022/04/24 21:44:11;;;;;;;9.23;4.15;;;;;;;12.86;61.88;100821.78;5065329;28;20047;-67
2022/04/24 21:46:37;;;;;;;;;;;;;;;12.92;62.03;100827.41;5079005;28;20444;-67
2022/04/24 21:49:04;;;;;;;7.28;3.70;;;;;;;12.80;61.82;100821.59;5104208;27;20541;-67
2022/04/24 21:51:31;;;;;;;5.95;3.38;;;;;;;12.79;61.25;100818.13;5083645;27;20743;-67
2022/04/24 21:53:57;;;;;;;7.95;4.13;;;;;;;12.72;62.95;100822.41;5086051;28;20052;-67
2022/04/24 21:56:24;;;;;;;7.25;4.22;;;;;;;12.70;62.46;100827.00;5095829;28;20653;-67
2022/04/24 21:58:50;;;;;;;6.55;4.05;;;;;;;12.58;63.46;100818.56;5084713;28;20420;-67
2022/04/24 22:01:22;;;;;;;7.90;4.25;;;;;;;12.64;62.40;100825.84;5087792;28;20043;-67
2022/04/24 22:06:33;;;;;;;7.25;4.22;;;;;;;12.54;63.82;100822.50;5097674;27;20044;-67
2022/04/24 22:09:00;;;;;;;8.20;4.30;;;;;;;12.47;64.47;100829.41;5082315;28;20062;-67
2022/04/24 22:11:27;;;;;;;7.97;4.30;;;;;;;12.52;64.33;100831.53;5093322;28;20052;-67
2022/04/24 22:13:53;;;;;;;6.50;4.15;;;;;;;12.45;64.48;100834.81;5076159;28;20052;-67
2022/04/24 22:16:20;;;;;;;8.43;4.50;;;;;;;12.43;63.91;100831.50;5082783;28;20044;-67
2022/04/24 22:18:48;;;;;;;7.80;4.03;;;;;;;12.41;63.83;100837.91;5093542;28;20563;-67
2022/04/24 22:26:45;;;;;;;8.55;4.55;;;;;;;12.30;65.37;100846.09;5067638;28;20048;-68
2022/04/24 22:29:12;;;;;;;10.55;4.82;;;;;;;12.20;65.63;100846.19;5081619;28;20056;-66
2022/04/24 22:31:38;;;;;;;7.40;3.97;;;;;;;12.15;65.60;100844.03;5076886;28;20048;-66
2022/04/24 22:34:05;;;;;;;10.13;4.57;;;;;;;12.11;66.42;100844.50;5091632;28;20054;-66
2022/04/24 22:36:31;;;;;;;9.07;4.97;;;;;;;12.10;66.69;100851.56;5087185;28;20067;-66
2022/04/24 22:38:58;;;;;;;8.95;4.82;;;;;;;12.07;66.72;100849.22;5080288;28;20048;-66
2022/04/24 22:41:24;;;;;;;7.10;4.15;;;;;;;11.98;65.07;100855.44;5091235;28;20052;-66
2022/04/24 22:43:51;;;;;;;9.98;5.03;;;;;;;11.92;67.79;100848.16;5080832;28;20062;-65
2022/04/24 22:46:17;;;;;;;8.55;4.93;;;;;;;11.98;66.14;100855.44;5089204;28;20360;-67
2022/04/24 22:48:44;;;;;;;9.00;5.07;;;;;;;11.88;67.84;100851.06;5078182;28;20515;-68
2022/04/24 22:51:10;;;;;;;10.95;5.28;;;;;;;11.86;68.61;100858.28;5094240;28;20422;-66
2022/04/24 22:53:37;;;;;;;7.05;4.78;;;;;;;11.83;67.33;100852.50;5089543;28;20062;-66
2022/04/24 22:56:04;;;;;;;7.25;3.88;;;;;;;11.78;67.38;100860.00;5078621;28;20531;-68
2022/04/24 22:58:30;;;;;;;9.20;5.35;;;;;;;11.68;69.31;100860.94;5091325;28;20082;-67
2022/04/24 23:00:57;;;;;;;11.95;5.13;;;;;;;11.65;69.65;100863.88;5086266;28;20048;-66
2022/04/24 23:03:23;;;;;;;15.20;5.68;;;;;;;11.63;69.39;100862.38;5093297;28;20060;-67
2022/04/24 23:05:50;;;;;;;10.98;4.60;;;;;;;11.62;67.15;100851.06;5065229;28;20456;-67
2022/04/24 23:08:16;;;;;;;10.43;5.18;;;;;;;11.59;69.04;100859.22;5090900;27;20227;-66
2022/04/24 23:10:43;;;;;;;8.35;5.22;;;;;;;11.56;70.68;100869.22;5092558;27;20054;-67
2022/04/24 23:13:09;;;;;;;11.77;5.05;;;;;;;11.42;70.76;100868.75;5080065;28;20055;-68
2022/04/24 23:15:35;;;;;;;10.35;5.30;;;;;;;11.34;71.36;100866.06;5099894;28;20052;-67
2022/04/24 23:20:47;;;;;;;7.82;5.57;;;;;;;11.31;71.94;100862.91;5092042;28;20055;-66
2022/04/24 23:23:13;;;;;;;10.05;5.95;;;;;;;11.33;71.43;100867.06;5072020;27;20078;-67
2022/04/24 23:25:40;;;;;;;8.98;5.05;;;;;;;11.27;70.60;100873.72;5083116;28;20058;-67
2022/04/24 23:28:06;;;;;;;12.30;5.47;;;;;;;11.28;71.76;100878.00;5084080;28;20044;-68
2022/04/24 23:30:33;;;;;;;9.30;4.90;;;;;;;11.24;71.76;100871.41;5075560;28;20058;-67
2022/04/24 23:32:59;;;;;;;10.65;5.40;;;;;;;11.27;71.43;100872.88;5080906;28;20444;-67
2022/04/24 23:35:26;;;;;;;8.15;5.20;;;;;;;11.21;71.88;100876.13;5059678;28;20052;-67
2022/04/24 23:37:52;;;;;;;9.30;5.50;;;;;;;11.13;73.28;100868.97;5078317;28;20062;-67
2022/04/24 23:40:19;;;;;;;9.48;5.60;;;;;;;11.17;73.00;100882.63;5073307;28;20505;-67
2022/04/24 23:42:48;;;;;;;8.63;5.68;;;;;;;11.10;72.82;100874.53;5069950;28;20047;-67
2022/04/24 23:45:14;;;;;;;13.90;5.78;;;;;;;11.10;72.72;100873.72;5088718;28;20094;-67
2022/04/24 23:47:41;;;;;;;13.52;5.93;;;;;;;11.08;72.57;100877.31;5068312;28;20538;-67
2022/04/24 23:50:08;;;;;;;13.02;6.05;;;;;;;11.11;72.79;100878.00;5075786;28;20052;-66
2022/04/24 23:52:34;;;;;;;10.05;6.07;;;;;;;11.01;74.37;100881.50;5072469;28;20054;-66
2022/04/24 23:55:01;;;;;;;9.90;6.10;;;;;;;10.97;74.68;100876.69;5094490;28;20055;-66
2022/04/24 23:57:27;;;;;;;10.00;5.88;;;;;;;10.96;73.71;100881.13;5075793;27;20051;-67
2022/04/24 23:59:54;;;;;;;10.18;5.75;;;;;;;10.89;74.02;100882.69;5081929;28;20524;-67
